createdAt,value
2019-04-07T00:01:15.802Z,8.8
2019-04-07T00:06:17.983Z,8.7
2019-04-07T00:11:20.452Z,8.6
2019-04-07T00:16:22.958Z,8.5
2019-04-07T00:21:25.754Z,8.4
2019-04-07T00:26:27.891Z,8.3
2019-04-07T00:31:30.332Z,8.2
2019-04-07T00:36:32.908Z,8.2
2019-04-07T00:41:35.357Z,8.2
2019-04-07T00:46:37.552Z,8.1
2019-04-07T00:51:39.949Z,8.1
2019-04-07T00:56:42.386Z,8
2019-04-07T01:01:45.029Z,7.9
2019-04-07T01:06:47.355Z,7.8
2019-04-07T01:11:49.724Z,7.8
2019-04-07T01:16:52.870Z,7.8
2019-04-07T01:21:54.914Z,7.8
2019-04-07T01:27:01.133Z,7.7
2019-04-07T01:31:59.507Z,7.7
2019-04-07T01:37:01.950Z,7.6
2019-04-07T01:42:04.954Z,7.5
2019-04-07T01:47:06.890Z,7.5
2019-04-07T01:52:09.209Z,7.5
2019-04-07T01:57:11.829Z,7.4
2019-04-07T02:02:14.691Z,7.3
2019-04-07T02:07:17.154Z,7.2
2019-04-07T02:12:19.742Z,7.1
2019-04-07T02:17:21.905Z,7.1
2019-04-07T02:22:23.936Z,7
2019-04-07T02:27:26.319Z,7
2019-04-07T02:32:29.240Z,6.9
2019-04-07T02:42:34.289Z,6.8
2019-04-07T02:47:36.101Z,6.8
2019-04-07T02:52:38.894Z,6.7
2019-04-07T02:57:40.957Z,6.6
2019-04-07T03:02:43.546Z,6.6
2019-04-07T03:07:47.220Z,6.5
2019-04-07T03:12:48.583Z,6.4
2019-04-07T03:17:51.818Z,6.4
2019-04-07T03:22:53.216Z,6.3
2019-04-07T03:27:55.606Z,6.3
2019-04-07T03:33:00.419Z,6.3
2019-04-07T03:38:00.882Z,6.2
2019-04-07T03:43:03.027Z,6.2
2019-04-07T03:48:06.796Z,6.1
2019-04-07T03:53:08.342Z,6
2019-04-07T03:58:10.277Z,5.9
2019-04-07T04:03:12.970Z,5.9
2019-04-07T04:08:15.967Z,5.8
2019-04-07T04:13:17.574Z,5.8
2019-04-07T04:18:20.485Z,5.7
2019-04-07T04:23:22.451Z,5.7
2019-04-07T04:28:24.907Z,5.8
2019-04-07T04:33:27.545Z,5.7
2019-04-07T04:38:30.037Z,5.7
2019-04-07T04:43:32.313Z,5.6
2019-04-07T04:48:35.167Z,5.6
2019-04-07T04:53:37.948Z,5.5
2019-04-07T04:58:39.599Z,5.5
2019-04-07T05:03:42.816Z,5.5
2019-04-07T05:08:44.502Z,5.6
2019-04-07T05:13:46.890Z,5.6
2019-04-07T05:18:49.294Z,5.7
2019-04-07T05:23:51.732Z,5.7
2019-04-07T05:33:56.647Z,5.8
2019-04-07T05:38:59.058Z,5.9
2019-04-07T05:44:01.503Z,5.9
2019-04-07T05:49:04.004Z,6
2019-04-07T05:54:07.043Z,6.1
2019-04-07T05:59:10.839Z,6.3
2019-04-07T06:04:16.681Z,6.4
2019-04-07T06:09:13.733Z,6.5
2019-04-07T06:14:16.948Z,6.6
2019-04-07T06:19:19.179Z,6.7
2019-04-07T06:24:22.143Z,6.8
2019-04-07T06:29:25.580Z,6.9
2019-04-07T06:34:26.513Z,7
2019-04-07T06:39:30.465Z,7.1
2019-04-07T06:44:30.792Z,7.1
2019-04-07T06:49:33.762Z,7.2
2019-04-07T06:54:35.683Z,7.4
2019-04-07T06:59:38.448Z,7.5
2019-04-07T07:04:43.045Z,7.5
2019-04-07T07:09:43.111Z,7.7
2019-04-07T07:14:46.905Z,7.7
2019-04-07T07:19:47.857Z,7.8
2019-04-07T07:24:51.188Z,7.9
2019-04-07T07:29:53.841Z,8
2019-04-07T07:34:55.293Z,8.1
2019-04-07T07:39:57.613Z,8.2
2019-04-07T07:45:00.062Z,8.3
2019-04-07T07:50:05.326Z,8.4
2019-04-07T07:55:05.775Z,8.5
2019-04-07T08:00:08.321Z,8.6
2019-04-07T08:05:10.373Z,8.7
2019-04-07T08:10:12.706Z,8.8
2019-04-07T08:15:14.705Z,8.9
2019-04-07T08:20:17.449Z,9
2019-04-07T08:25:21.702Z,9.2
2019-04-07T08:30:22.856Z,9.3
2019-04-07T08:35:24.468Z,9.4
2019-04-07T08:40:27.408Z,9.6
2019-04-07T08:45:31.617Z,9.8
2019-04-07T08:50:32.098Z,10
2019-04-07T08:55:34.588Z,10.1
2019-04-07T09:00:37.210Z,10.2
2019-04-07T09:05:39.850Z,10.4
2019-04-07T09:10:41.629Z,10.6
2019-04-07T09:15:44.997Z,10.8
2019-04-07T09:20:49.051Z,10.9
2019-04-07T09:25:49.207Z,11.1
2019-04-07T09:30:51.437Z,11.3
2019-04-07T09:35:56.606Z,11.5
2019-04-07T09:45:59.383Z,11.8
2019-04-07T09:51:04.825Z,12
2019-04-07T09:56:03.773Z,12.2
2019-04-07T10:01:07.082Z,12.5
2019-04-07T10:06:10.509Z,12.7
2019-04-07T10:11:11.769Z,12.9
2019-04-07T10:16:13.334Z,13.2
2019-04-07T10:21:15.737Z,13.4
2019-04-07T10:31:20.931Z,13.7
2019-04-07T10:36:23.034Z,14.1
2019-04-07T10:41:26.224Z,14.3
2019-04-07T10:46:28.334Z,14.6
2019-04-07T10:51:30.837Z,15
2019-04-07T10:56:32.775Z,15.6
2019-04-07T11:06:38.358Z,16.5
2019-04-07T11:11:41.119Z,16.8
2019-04-07T11:16:43.132Z,17.2
2019-04-07T11:21:45.294Z,17.4
2019-04-07T11:26:47.514Z,17.7
2019-04-07T11:31:50.421Z,17.9
2019-04-07T11:36:52.891Z,18.2
2019-04-07T11:41:54.986Z,18.5
2019-04-07T11:46:57.490Z,18.9
2019-04-07T11:52:00.115Z,19.1
2019-04-07T11:57:02.155Z,19.4
2019-04-07T12:02:06.735Z,19.3
2019-04-07T12:07:07.786Z,19.4
2019-04-07T12:12:09.516Z,19.9
2019-04-07T12:17:12.744Z,20.4
2019-04-07T12:22:14.411Z,20.8
2019-04-07T12:27:17.239Z,21.2
2019-04-07T12:32:19.283Z,21.8
2019-04-07T12:37:21.925Z,22.2
2019-04-07T12:42:24.048Z,21.9
2019-04-07T12:47:26.705Z,22.4
2019-04-07T12:52:31.084Z,23.2
2019-04-07T12:57:35.291Z,23.6
2019-04-07T13:02:33.847Z,22.7
2019-04-07T13:07:37.540Z,22.8
2019-04-07T13:12:38.901Z,23.9
2019-04-07T13:17:42.048Z,23.5
2019-04-07T13:22:43.590Z,24.6
2019-04-07T13:27:46.839Z,25.6
2019-04-07T13:32:52.260Z,26.1
2019-04-07T13:37:51.136Z,26.8
2019-04-07T13:42:56.545Z,26.1
2019-04-07T13:47:55.786Z,24
2019-04-07T13:52:59.058Z,22.2
2019-04-07T13:58:00.827Z,23.9
2019-04-07T14:03:03.122Z,24.3
2019-04-07T14:08:05.935Z,23.4
2019-04-07T14:13:08.080Z,22
2019-04-07T14:18:11.218Z,20.9
2019-04-07T14:23:13.188Z,20.1
2019-04-07T14:28:15.489Z,19.4
2019-04-07T14:33:17.899Z,18.8
2019-04-07T14:38:20.275Z,20.2
2019-04-07T14:43:23.468Z,21.8
2019-04-07T14:48:25.098Z,22.6
2019-04-07T14:53:27.621Z,24.1
2019-04-07T14:58:30.237Z,23.2
2019-04-07T15:03:33.196Z,22.8
2019-04-07T15:08:35.537Z,23.5
2019-04-07T15:13:37.544Z,26.3
2019-04-07T15:18:40.046Z,28.5
2019-04-07T15:23:44.053Z,29.7
2019-04-07T15:28:44.723Z,30.2
2019-04-07T15:33:47.790Z,30.4
2019-04-07T15:38:49.703Z,31
2019-04-07T15:43:52.781Z,31.1
2019-04-07T15:48:56.049Z,30.9
2019-04-07T15:53:56.871Z,30.7
2019-04-07T15:59:01.250Z,29.5
2019-04-07T16:04:01.723Z,26.8
2019-04-07T16:09:08.347Z,24.6
2019-04-07T16:14:10.919Z,22.7
2019-04-07T16:19:12.582Z,21.2
2019-04-07T16:24:11.538Z,20
2019-04-07T16:29:16.992Z,19.5
2019-04-07T16:34:16.557Z,19.5
2019-04-07T16:39:19.824Z,19.2
2019-04-07T16:44:21.530Z,19.3
2019-04-07T16:49:24.622Z,18.9
2019-04-07T16:54:26.554Z,18.3
2019-04-07T16:59:28.737Z,17.7
2019-04-07T17:04:31.110Z,17.2
2019-04-07T17:09:35.341Z,16.8
2019-04-07T17:14:36.167Z,16.5
2019-04-07T17:19:38.445Z,16.1
2019-04-07T17:24:41.010Z,15.9
2019-04-07T17:29:43.693Z,15.6
2019-04-07T17:34:46.475Z,15.4
2019-04-07T17:39:48.313Z,15.3
2019-04-07T17:44:51.632Z,15.1
2019-04-07T17:49:56.510Z,15
2019-04-07T17:54:55.757Z,14.8
2019-04-07T17:59:58.245Z,14.7
2019-04-07T18:05:00.329Z,14.6
2019-04-07T18:10:02.843Z,14.5
2019-04-07T18:15:07.906Z,14.4
2019-04-07T18:20:08.926Z,14.3
2019-04-07T18:25:10.532Z,14.2
2019-04-07T18:30:14.531Z,14
2019-04-07T18:35:15.301Z,13.8
2019-04-07T18:40:17.832Z,13.6
2019-04-07T18:45:19.926Z,13.4
2019-04-07T18:50:22.263Z,13.3
2019-04-07T18:55:26.364Z,13.2
2019-04-07T19:00:30.025Z,13.1
2019-04-07T19:05:31.510Z,13.1
2019-04-07T19:10:32.336Z,13.1
2019-04-07T19:15:36.969Z,13
2019-04-07T19:20:38.583Z,13
2019-04-07T19:25:41.899Z,13
2019-04-07T19:30:45.268Z,12.9
2019-04-07T19:35:44.610Z,12.9
2019-04-07T19:40:48.172Z,12.7
2019-04-07T19:45:49.847Z,12.6
2019-04-07T19:50:54.734Z,12.5
2019-04-07T19:55:55.400Z,12.3
2019-04-07T20:00:57.799Z,12.1
2019-04-07T20:05:58.922Z,12
2019-04-07T20:11:01.315Z,11.8
2019-04-07T20:16:04.570Z,11.8
2019-04-07T20:21:07.989Z,11.7
2019-04-07T20:26:08.790Z,11.7
2019-04-07T20:31:11.077Z,11.7
2019-04-07T20:36:19.145Z,11.7
2019-04-07T20:41:16.960Z,11.7
2019-04-07T20:46:20.719Z,11.7
2019-04-07T20:51:20.968Z,11.7
2019-04-07T20:56:23.271Z,11.6
2019-04-07T21:01:25.717Z,11.5
2019-04-07T21:06:29.981Z,11.3
2019-04-07T21:11:30.615Z,11.2
2019-04-07T21:16:33.066Z,11
2019-04-07T21:21:35.559Z,10.8
2019-04-07T21:26:37.924Z,10.7
2019-04-07T21:31:40.907Z,10.6
2019-04-07T21:36:43.057Z,10.6
2019-04-07T21:41:46.314Z,10.5
2019-04-07T21:46:48.421Z,10.5
2019-04-07T21:51:50.157Z,10.5
2019-04-07T21:56:52.685Z,10.5
2019-04-07T22:01:55.170Z,10.5
2019-04-07T22:06:59.483Z,10.4
2019-04-07T22:12:00.204Z,10.3
2019-04-07T22:17:02.941Z,10.2
2019-04-07T22:22:04.771Z,10
2019-04-07T22:27:07.280Z,9.9
2019-04-07T22:32:09.978Z,9.8
2019-04-07T22:37:12.258Z,9.7
2019-04-07T22:42:16.533Z,9.6
2019-04-07T22:47:19.655Z,9.5
2019-04-07T22:52:20.397Z,9.4
2019-04-07T22:57:21.950Z,9.3
2019-04-07T23:02:24.692Z,9.2
2019-04-07T23:07:27.567Z,9.1
2019-04-07T23:12:29.157Z,9
2019-04-07T23:17:32.193Z,9
2019-04-07T23:22:34.117Z,8.9
2019-04-07T23:27:36.573Z,8.9
2019-04-07T23:32:39.639Z,8.8
2019-04-07T23:37:41.448Z,8.7
2019-04-07T23:42:44.617Z,8.6
2019-04-07T23:47:46.913Z,8.6
2019-04-07T23:52:49.678Z,8.5
2019-04-07T23:57:51.891Z,8.3
